Time;durP1;ratioP1;P1;durP2;ratioP2;P2;SDS_P1;SDS_P2;PMS_P1;PMS_P2;Temp;Humidity;BMP_temperature;BMP_pressure;BME280_temperature;BME280_humidity;BME280_pressure;Samples;Min_cycle;Max_cycle;Signal;HPM_P1;HPM_P2
2023/08/12 00:00:46;;;;;;;;;3.25;3.25;;;;;22.93;79.85;101556.66;5080410;27;45599;-50
2023/08/12 00:03:12;;;;;;;;;2.00;2.00;;;;;22.96;80.03;101540.06;5088672;27;45828;-49
2023/08/12 00:05:39;;;;;;;;;2.75;2.75;;;;;23.01;79.50;101555.06;5086929;27;45651;-49
2023/08/12 00:08:05;;;;;;;;;6.75;4.00;;;;;23.04;80.72;101546.66;5087222;27;46421;-47
2023/08/12 00:10:30;;;;;;;;;3.50;3.50;;;;;23.05;79.46;101540.22;5086064;27;45516;-49
2023/08/12 00:12:55;;;;;;;;;3.00;3.00;;;;;23.07;79.75;101538.25;5085651;27;45908;-52
2023/08/12 00:15:21;;;;;;;;;2.75;2.00;;;;;23.08;79.97;101539.97;5084604;27;74911;-50
2023/08/12 00:17:46;;;;;;;;;3.00;3.00;;;;;23.03;79.96;101532.22;5063420;27;57218;-50
2023/08/12 00:20:12;;;;;;;;;4.25;2.50;;;;;23.00;80.05;101537.06;5084256;27;64920;-51
2023/08/12 00:22:38;;;;;;;;;3.75;3.75;;;;;22.99;80.48;101532.66;5090024;27;45712;-49
2023/08/12 00:25:04;;;;;;;;;3.50;3.50;;;;;23.01;80.24;101530.66;5090523;27;45970;-50
2023/08/12 00:27:29;;;;;;;;;3.00;3.00;;;;;23.04;80.25;101519.53;5085345;27;46385;-51
2023/08/12 00:29:54;;;;;;;;;3.00;3.00;;;;;23.05;80.48;101513.97;5088483;27;45677;-50
2023/08/12 00:32:20;;;;;;;;;4.00;2.50;;;;;23.08;80.63;101515.53;5089760;27;45606;-47
2023/08/12 00:34:45;;;;;;;;;5.50;4.25;;;;;23.06;80.23;101510.28;5084047;27;46057;-50
2023/08/12 00:37:10;;;;;;;;;2.25;2.25;;;;;23.07;80.71;101505.69;5072528;27;59638;-51
2023/08/12 00:39:36;;;;;;;;;4.25;3.75;;;;;23.07;81.16;101500.25;5085382;27;45460;-51
2023/08/12 00:42:01;;;;;;;;;3.00;3.00;;;;;23.06;81.06;101506.69;5092928;27;70271;-52
2023/08/12 00:44:26;;;;;;;;;4.00;3.00;;;;;23.06;80.93;101506.69;5074616;28;45795;-52
2023/08/12 00:46:52;;;;;;;;;4.00;4.00;;;;;23.03;80.94;101507.81;5072729;28;53144;-52
2023/08/12 00:49:18;;;;;;;;;4.25;4.25;;;;;23.00;81.48;101515.38;5088191;27;61386;-53
2023/08/12 00:51:44;;;;;;;;;3.75;3.75;;;;;22.86;81.67;101514.78;5073017;27;45605;-51
2023/08/12 00:54:14;;;;;;;;;3.00;3.00;;;;;22.80;81.47;101513.50;5062411;27;45629;-52
2023/08/12 00:56:40;;;;;;;;;5.75;3.75;;;;;22.80;81.07;101502.66;5072687;27;45922;-52
2023/08/12 00:59:07;;;;;;;;;6.00;4.00;;;;;22.80;84.50;101509.91;5082876;27;45492;-51
2023/08/12 01:01:33;;;;;;;;;3.75;3.75;;;;;22.60;91.16;101493.63;5088602;27;45530;-51
2023/08/12 01:03:59;;;;;;;;;3.75;3.75;;;;;22.27;94.53;101501.03;5084586;27;46444;-51
2023/08/12 01:06:24;;;;;;;;;3.75;3.75;;;;;22.12;93.85;101496.97;5086870;27;45927;-51
2023/08/12 01:08:50;;;;;;;;;4.25;3.00;;;;;22.05;93.91;101491.25;5088546;27;51140;-50
2023/08/12 01:11:44;;;;;;;;;5.00;4.00;;;;;22.02;91.23;101504.19;5084739;27;70377;-50
2023/08/12 01:14:17;;;;;;;;;4.00;4.00;;;;;22.05;95.33;101496.66;5088824;27;46920;-48
2023/08/12 01:16:45;;;;;;;;;4.00;4.00;;;;;21.91;98.19;101497.88;5085808;27;45610;-48
2023/08/12 01:19:20;;;;;;;;;4.25;4.00;;;;;21.85;93.37;101493.00;5060539;27;45450;-51
2023/08/12 01:21:46;;;;;;;;;5.00;5.00;;;;;21.87;93.27;101484.75;5087311;27;45805;-48
2023/08/12 01:24:11;;;;;;;;;4.25;3.00;;;;;21.92;95.23;101490.63;5062206;27;46880;-48
2023/08/12 01:26:37;;;;;;;;;4.00;4.00;;;;;21.92;95.53;101480.63;5088295;27;65212;-52
2023/08/12 01:29:03;;;;;;;;;3.75;3.75;;;;;21.89;95.33;101485.47;5088707;27;69134;-50
2023/08/12 01:31:45;;;;;;;;;4.00;4.00;;;;;21.89;93.10;101489.03;5088328;27;45899;-49
2023/08/12 01:34:23;;;;;;;;;4.25;4.25;;;;;21.98;91.99;101487.38;5090577;27;46136;-50
2023/08/12 01:36:55;;;;;;;;;5.00;5.00;;;;;22.07;92.13;101483.84;5088232;27;45344;-48
2023/08/12 01:39:21;;;;;;;;;3.25;3.25;;;;;22.09;96.47;101483.72;5064788;27;45438;-51
2023/08/12 01:41:47;;;;;;;;;4.00;4.00;;;;;21.95;98.12;101483.09;5066795;27;45476;-48
2023/08/12 01:44:12;;;;;;;;;4.00;4.00;;;;;21.82;99.95;101482.44;5074295;27;75644;-49
2023/08/12 01:46:38;;;;;;;;;5.50;3.75;;;;;21.75;95.87;101476.69;5069573;27;45482;-49
2023/08/12 01:49:03;;;;;;;;;3.00;3.00;;;;;21.72;99.03;101474.28;5093046;27;68218;-47
2023/08/12 01:51:29;;;;;;;;;5.50;3.00;;;;;21.72;97.02;101479.69;5084214;27;45512;-52
2023/08/12 01:53:54;;;;;;;;;2.75;2.75;;;;;21.70;98.69;101468.13;5067429;27;45499;-50
2023/08/12 01:56:20;;;;;;;;;2.50;2.50;;;;;21.63;100.00;101462.38;5085284;27;67436;-52
2023/08/12 01:58:45;;;;;;;;;6.00;3.00;;;;;21.58;100.00;101464.63;5082652;27;69620;-51
2023/08/12 02:01:10;;;;;;;;;3.25;2.00;;;;;21.58;100.00;101452.97;5078981;27;60802;-47
2023/08/12 02:03:36;;;;;;;;;2.00;2.00;;;;;21.60;99.93;101461.78;5074728;27;75881;-49
2023/08/12 02:06:01;;;;;;;;;2.75;2.75;;;;;;;;5078999;27;45443;-49
2023/08/12 02:08:26;;;;;;;;;3.75;3.75;;;;;21.71;99.80;101456.31;5094598;27;45555;-51
2023/08/12 02:10:52;;;;;;;;;4.25;3.00;;;;;21.74;100.00;101455.19;5091379;27;45412;-51
2023/08/12 02:13:17;;;;;;;;;3.25;3.25;;;;;21.72;99.70;101460.72;5093830;27;64054;-48
2023/08/12 02:15:43;;;;;;;;;2.50;2.50;;;;;21.72;100.00;101451.75;5093635;27;64683;-49
2023/08/12 02:18:08;;;;;;;;;3.00;3.00;;;;;21.75;99.44;101459.59;5063291;27;65202;-50
2023/08/12 02:20:34;;;;;;;;;2.00;2.00;;;;;21.79;98.96;101461.91;5083980;27;61908;-50
2023/08/12 02:22:59;;;;;;;;;3.00;3.00;;;;;21.83;98.71;101464.34;5078510;27;72440;-50
2023/08/12 02:25:24;;;;;;;;;2.25;2.25;;;;;21.88;98.71;101465.66;5084477;27;45790;-49
2023/08/12 02:27:50;;;;;;;;;4.75;3.00;;;;;21.96;99.14;101463.13;5088297;27;56101;-47
2023/08/12 02:30:15;;;;;;;;;4.25;3.00;;;;;22.02;98.13;101463.56;5082014;27;50292;-49
2023/08/12 02:32:43;;;;;;;;;1.00;1.00;;;;;22.04;100.00;101459.72;5090258;27;46264;-51
2023/08/12 02:35:09;;;;;;;;;2.25;2.00;;;;;22.00;100.00;101457.44;5085592;27;45852;-48
2023/08/12 02:37:34;;;;;;;;;2.00;2.00;;;;;21.96;100.00;101449.59;5087256;27;45522;-51
2023/08/12 02:39:59;;;;;;;;;1.00;1.00;;;;;21.95;99.73;101457.84;5082598;27;60139;-51
2023/08/12 02:42:25;;;;;;;;;1.75;1.75;;;;;21.95;99.38;101460.56;5091226;27;46125;-48
2023/08/12 02:44:50;;;;;;;;;1.00;1.00;;;;;21.97;99.85;101451.31;5080806;27;64236;-48
2023/08/12 02:47:15;;;;;;;;;1.00;1.00;;;;;22.03;98.61;101452.63;5080995;27;65005;-51
2023/08/12 02:49:40;;;;;;;;;0.00;0.00;;;;;22.06;100.00;101456.88;5083704;27;57329;-49
2023/08/12 02:52:06;;;;;;;;;1.00;1.00;;;;;22.05;98.85;101460.63;5093235;27;67598;-47
2023/08/12 02:54:31;;;;;;;;;0.00;0.00;;;;;21.98;98.64;101458.44;5081489;27;66848;-51
2023/08/12 02:56:56;;;;;;;;;0.00;0.00;;;;;21.98;98.18;101452.19;5074039;27;62909;-50
2023/08/12 02:59:22;;;;;;;;;0.00;0.00;;;;;21.98;99.29;101450.31;5087788;27;63273;-50
2023/08/12 03:01:47;;;;;;;;;0.00;0.00;;;;;22.01;99.06;101448.34;5084595;27;45981;-51
2023/08/12 03:04:12;;;;;;;;;0.00;0.00;;;;;22.01;99.12;101449.19;5094677;27;45644;-52
2023/08/12 03:06:38;;;;;;;;;0.00;0.00;;;;;21.97;99.57;101439.63;5095397;27;67021;-51
2023/08/12 03:09:03;;;;;;;;;0.00;0.00;;;;;21.96;99.64;101438.75;5097106;27;66924;-52
2023/08/12 03:11:28;;;;;;;;;0.00;0.00;;;;;21.95;97.83;101436.19;5090633;27;45409;-49
2023/08/12 03:13:54;;;;;;;;;0.00;0.00;;;;;21.96;98.15;101433.34;5068165;27;49935;-50
2023/08/12 03:16:19;;;;;;;;;0.00;0.00;;;;;21.96;98.46;101437.91;5095510;27;45390;-47
2023/08/12 03:18:44;;;;;;;;;0.00;0.00;;;;;21.97;98.60;101434.22;5082241;27;68315;-49
2023/08/12 03:21:10;;;;;;;;;1.75;1.00;;;;;21.95;97.75;101436.19;5089700;27;71590;-52
2023/08/12 03:23:36;;;;;;;;;0.00;0.00;;;;;21.96;97.68;101432.50;5085952;27;72828;-50
2023/08/12 03:26:01;;;;;;;;;0.00;0.00;;;;;22.01;97.92;101432.94;5065200;27;45550;-48
2023/08/12 03:28:27;;;;;;;;;0.00;0.00;;;;;22.04;98.16;101434.50;5096010;27;45362;-51
2023/08/12 03:30:52;;;;;;;;;0.00;0.00;;;;;22.06;98.79;101436.09;5092351;27;47227;-48
2023/08/12 03:33:18;;;;;;;;;0.00;0.00;;;;;22.07;99.63;101432.41;5090055;27;64685;-50
2023/08/12 03:35:48;;;;;;;;;0.00;0.00;;;;;21.93;100.00;101422.78;5090644;27;45550;-51
2023/08/12 03:38:13;;;;;;;;;0.00;0.00;;;;;21.83;100.00;101424.59;5085570;27;45480;-50
2023/08/12 03:40:40;;;;;;;;;1.00;0.00;;;;;21.78;100.00;101432.25;5069012;27;45612;-51
2023/08/12 03:43:05;;;;;;;;;0.00;0.00;;;;;21.76;100.00;101420.72;5091658;27;45372;-51
2023/08/12 03:45:30;;;;;;;;;0.75;0.00;;;;;21.79;100.00;101417.72;5085873;27;47478;-51
2023/08/12 03:47:56;;;;;;;;;0.00;0.00;;;;;21.79;100.00;101421.28;5087078;27;45437;-48
2023/08/12 03:50:21;;;;;;;;;0.00;0.00;;;;;21.79;100.00;101412.31;5090048;27;73832;-52
2023/08/12 03:52:46;;;;;;;;;0.00;0.00;;;;;21.81;99.22;101416.59;5079674;27;66421;-49
2023/08/12 03:55:12;;;;;;;;;0.00;0.00;;;;;21.84;99.41;101414.59;5084174;27;45340;-49
2023/08/12 03:57:37;;;;;;;;;0.00;0.00;;;;;21.86;99.11;101415.34;5088066;27;65387;-50
2023/08/12 04:00:03;;;;;;;;;0.00;0.00;;;;;21.86;98.64;101410.78;5083653;27;61315;-51
2023/08/12 04:02:29;;;;;;;;;0.00;0.00;;;;;21.90;99.21;101416.78;5088520;27;45419;-52
2023/08/12 04:04:54;;;;;;;;;0.00;0.00;;;;;21.91;98.49;101419.34;5093942;27;45896;-46
2023/08/12 04:07:20;;;;;;;;;0.00;0.00;;;;;21.93;98.02;101409.25;5097724;27;45467;-51
2023/08/12 04:09:45;;;;;;;;;0.00;0.00;;;;;21.96;97.84;101405.41;5096282;27;46080;-52
2023/08/12 04:12:10;;;;;;;;;0.00;0.00;;;;;21.92;97.56;101402.09;5093076;27;45449;-53
2023/08/12 04:14:36;;;;;;;;;0.00;0.00;;;;;21.84;98.25;101403.78;5098449;27;54864;-52
2023/08/12 04:17:01;;;;;;;;;0.50;0.00;;;;;21.74;97.57;101399.19;5087595;27;71425;-52
2023/08/12 04:19:26;;;;;;;;;0.00;0.00;;;;;21.70;97.66;101402.31;5083538;27;69941;-52
2023/08/12 04:21:52;;;;;;;;;1.00;1.00;;;;;21.74;97.83;101392.91;5082382;27;63341;-47
2023/08/12 04:24:17;;;;;;;;;0.00;0.00;;;;;21.77;98.90;101392.63;5081697;27;48444;-48
2023/08/12 04:26:42;;;;;;;;;0.00;0.00;;;;;21.77;98.16;101398.94;5080000;27;65209;-52
2023/08/12 04:29:08;;;;;;;;;0.00;0.00;;;;;21.78;98.59;101384.41;5083310;27;74761;-46
2023/08/12 04:31:33;;;;;;;;;0.00;0.00;;;;;21.83;98.07;101385.84;5093664;27;69400;-49
2023/08/12 04:33:59;;;;;;;;;0.00;0.00;;;;;21.83;97.60;101394.81;5085494;27;45599;-48
2023/08/12 04:36:24;;;;;;;;;0.00;0.00;;;;;21.84;98.07;101393.81;5081042;27;55933;-49
2023/08/12 04:38:49;;;;;;;;;0.00;0.00;;;;;21.88;97.30;101389.00;5083318;27;71326;-47
2023/08/12 04:41:15;;;;;;;;;0.00;0.00;;;;;21.89;96.72;101390.69;5084636;27;45585;-48
2023/08/12 04:43:40;;;;;;;;;0.00;0.00;;;;;21.89;96.39;101386.16;5095783;27;45478;-49
2023/08/12 04:46:06;;;;;;;;;1.00;0.00;;;;;21.91;96.60;101391.41;5088128;27;45410;-50
2023/08/12 04:48:31;;;;;;;;;0.00;0.00;;;;;21.91;96.86;101394.13;5090493;27;67611;-47
2023/08/12 04:51:00;;;;;;;;;0.00;0.00;;;;;21.93;96.29;101402.97;5079365;27;73211;-49
2023/08/12 04:53:25;;;;;;;;;0.00;0.00;;;;;21.95;95.63;101411.81;5075615;27;45501;-48
2023/08/12 04:55:51;;;;;;;;;0.00;0.00;;;;;21.93;94.49;101408.41;5078550;27;65272;-50
2023/08/12 04:58:17;;;;;;;;;0.00;0.00;;;;;21.92;95.60;101404.81;5081151;27;46855;-46
2023/08/12 05:00:42;;;;;;;;;0.00;0.00;;;;;21.90;95.47;101401.41;5080915;27;45287;-49
2023/08/12 05:03:07;;;;;;;;;2.00;0.50;;;;;21.88;95.37;101400.66;5071670;27;45433;-47
2023/08/12 05:05:32;;;;;;;;;0.00;0.00;;;;;21.89;94.75;101398.81;5088463;27;67877;-50
2023/08/12 05:07:58;;;;;;;;;0.25;0.25;;;;;21.88;95.17;101395.25;5086662;27;74007;-51
2023/08/12 05:10:23;;;;;;;;;0.00;0.00;;;;;21.89;94.82;101402.38;5083992;27;72736;-47
2023/08/12 05:12:50;;;;;;;;;0.00;0.00;;;;;21.91;95.14;101394.97;5082707;27;65372;-48
2023/08/12 05:15:15;;;;;;;;;0.00;0.00;;;;;21.90;94.31;101400.53;5086123;27;45391;-49
2023/08/12 05:17:40;;;;;;;;;0.00;0.00;;;;;21.87;94.70;101398.94;5080125;27;46317;-46
2023/08/12 05:20:06;;;;;;;;;0.00;0.00;;;;;21.88;94.40;101397.97;5061873;28;52457;-47
2023/08/12 05:22:32;;;;;;;;;0.00;0.00;;;;;21.87;94.74;101407.06;5078476;27;45400;-48
2023/08/12 05:24:57;;;;;;;;;0.00;0.00;;;;;21.85;94.92;101410.91;5083959;27;64145;-47
2023/08/12 05:27:22;;;;;;;;;0.00;0.00;;;;;21.84;94.46;101412.78;5092632;27;69858;-48
2023/08/12 05:29:48;;;;;;;;;0.00;0.00;;;;;21.86;94.83;101420.75;5092888;27;70167;-48
2023/08/12 05:32:13;;;;;;;;;0.00;0.00;;;;;21.86;94.14;101408.06;5075489;27;53169;-49
2023/08/12 05:34:38;;;;;;;;;0.00;0.00;;;;;21.95;94.24;101406.41;5076873;27;55029;-50
2023/08/12 05:37:04;;;;;;;;;0.25;0.00;;;;;22.02;93.67;101412.13;5084839;27;51026;-49
2023/08/12 05:39:29;;;;;;;;;1.25;0.00;;;;;22.09;93.67;101407.88;5085335;27;57877;-47
2023/08/12 05:41:54;;;;;;;;;0.00;0.00;;;;;22.13;93.50;101402.03;5084956;27;45462;-50
2023/08/12 05:44:20;;;;;;;;;0.00;0.00;;;;;22.18;92.91;101401.63;5086502;27;45375;-52
2023/08/12 05:46:45;;;;;;;;;1.25;0.00;;;;;22.18;92.62;101400.78;5078611;27;65172;-52
2023/08/12 05:49:11;;;;;;;;;0.00;0.00;;;;;22.18;92.07;101404.34;5069184;27;45500;-49
2023/08/12 05:51:38;;;;;;;;;0.00;0.00;;;;;22.17;91.95;101413.44;5082263;27;45735;-52
2023/08/12 05:54:03;;;;;;;;;0.25;0.00;;;;;22.15;91.89;101423.59;5067434;27;48341;-51
2023/08/12 05:56:29;;;;;;;;;0.00;0.00;;;;;22.13;91.78;101422.84;5080230;27;45862;-52
2023/08/12 05:58:54;;;;;;;;;0.00;0.00;;;;;22.10;92.05;101425.84;5069936;27;71765;-51
2023/08/12 06:01:20;;;;;;;;;0.00;0.00;;;;;22.10;91.74;101433.97;5088819;27;45491;-50
2023/08/12 06:03:45;;;;;;;;;1.00;0.00;;;;;22.06;91.65;101427.97;5093729;27;45421;-52
2023/08/12 06:06:10;;;;;;;;;1.00;0.00;;;;;22.07;91.98;101420.69;5090117;27;74352;-51
2023/08/12 06:08:35;;;;;;;;;0.50;0.00;;;;;22.11;91.95;101427.53;5096322;27;45489;-52
2023/08/12 06:11:01;;;;;;;;;0.00;0.00;;;;;22.12;91.25;101426.56;5090774;27;61022;-52
2023/08/12 06:13:26;;;;;;;;;0.00;0.00;;;;;22.12;91.01;101427.44;5087071;27;45660;-50
2023/08/12 06:15:52;;;;;;;;;0.00;0.00;;;;;22.09;91.66;101429.53;5086551;27;67097;-51
2023/08/12 06:18:17;;;;;;;;;0.25;0.25;;;;;22.07;91.51;101428.81;5074415;27;70302;-52
2023/08/12 06:20:42;;;;;;;;;2.00;0.00;;;;;22.07;92.30;101423.41;5083770;27;61484;-51
2023/08/12 06:23:07;;;;;;;;;0.25;0.25;;;;;22.06;91.64;101417.13;5079577;27;65038;-49
2023/08/12 06:25:33;;;;;;;;;0.00;0.00;;;;;22.04;91.78;101413.69;5087342;27;71516;-49
2023/08/12 06:27:58;;;;;;;;;0.00;0.00;;;;;22.06;92.17;101410.84;5083059;27;45348;-51
2023/08/12 06:30:24;;;;;;;;;0.00;0.00;;;;;22.07;91.81;101423.41;5094518;27;45556;-50
2023/08/12 06:32:49;;;;;;;;;0.50;0.00;;;;;22.08;91.46;101414.28;5084793;27;45599;-51
2023/08/12 06:35:14;;;;;;;;;2.00;0.00;;;;;22.10;91.60;101417.72;5082226;27;52651;-49
2023/08/12 06:37:41;;;;;;;;;0.25;0.25;;;;;22.14;91.46;101416.44;5085215;27;45334;-49
2023/08/12 06:40:07;;;;;;;;;0.00;0.00;;;;;22.18;92.35;101415.19;5080671;27;45532;-52
2023/08/12 06:42:32;;;;;;;;;1.00;1.00;;;;;22.21;92.59;101422.16;5082332;27;45311;-52
2023/08/12 06:44:59;;;;;;;;;0.75;0.00;;;;;22.20;90.90;101424.03;5085603;27;45375;-50
2023/08/12 06:47:26;;;;;;;;;1.25;1.25;;;;;22.19;91.48;101440.41;5086181;27;45817;-46
2023/08/12 06:49:52;;;;;;;;;0.00;0.00;;;;;22.17;90.16;101440.53;5087230;27;45469;-47
2023/08/12 06:52:17;;;;;;;;;1.00;0.00;;;;;22.11;89.78;101435.66;5085445;27;45719;-47
2023/08/12 06:54:42;;;;;;;;;0.00;0.00;;;;;22.04;88.81;101442.63;5071643;27;67841;-44
2023/08/12 06:57:08;;;;;;;;;0.00;0.00;;;;;21.98;88.10;101444.91;5089980;27;73304;-49
2023/08/12 06:59:33;;;;;;;;;0.00;0.00;;;;;21.88;87.87;101444.00;5089947;27;46043;-48
2023/08/12 07:01:58;;;;;;;;;1.00;0.00;;;;;21.78;87.73;101452.09;5089346;27;45536;-46
2023/08/12 07:04:24;;;;;;;;;0.00;0.00;;;;;21.66;87.26;101445.03;5082504;27;67026;-46
2023/08/12 07:06:49;;;;;;;;;0.00;0.00;;;;;21.59;87.92;101444.69;5084045;27;66820;-45
2023/08/12 07:09:14;;;;;;;;;2.00;0.00;;;;;21.53;87.44;101439.78;5092513;27;45568;-45
2023/08/12 07:11:40;;;;;;;;;0.00;0.00;;;;;21.48;87.91;101451.03;5069258;27;65560;-49
2023/08/12 07:14:05;;;;;;;;;0.50;0.00;;;;;21.52;88.13;101451.59;5093813;27;48667;-45
2023/08/12 07:16:31;;;;;;;;;0.25;0.25;;;;;21.62;87.28;101465.22;5078809;27;45590;-45
2023/08/12 07:18:56;;;;;;;;;0.50;0.00;;;;;21.67;86.15;101471.09;5092662;27;45664;-48
2023/08/12 07:21:21;;;;;;;;;0.75;0.75;;;;;21.63;85.54;101467.78;5079972;27;51432;-45
2023/08/12 07:23:47;;;;;;;;;0.00;0.00;;;;;21.61;85.76;101474.34;5066986;27;45896;-45
2023/08/12 07:26:12;;;;;;;;;1.00;1.00;;;;;21.59;85.91;101482.59;5065783;27;45666;-45
2023/08/12 07:28:37;;;;;;;;;0.00;0.00;;;;;21.60;85.75;101484.31;5069969;27;66134;-47
2023/08/12 07:31:03;;;;;;;;;0.50;0.00;;;;;21.63;85.26;101485.91;5096001;27;69778;-44
2023/08/12 07:33:28;;;;;;;;;0.50;0.25;;;;;21.61;85.17;101482.44;5085056;27;54125;-44
2023/08/12 07:35:53;;;;;;;;;2.25;1.00;;;;;21.57;84.43;101494.53;5079452;27;45535;-45
2023/08/12 07:38:19;;;;;;;;;0.00;0.00;;;;;21.53;85.58;101493.06;5080234;27;69094;-43
2023/08/12 07:40:44;;;;;;;;;0.25;0.00;;;;;21.52;84.89;101494.88;5067426;27;47838;-44
2023/08/12 07:43:09;;;;;;;;;1.75;1.00;;;;;21.53;85.28;101490.34;5093405;27;74226;-44
2023/08/12 07:45:35;;;;;;;;;1.25;1.25;;;;;21.59;85.40;101503.38;5089480;27;45460;-48
2023/08/12 07:48:00;;;;;;;;;0.00;0.00;;;;;21.69;85.11;101498.03;5091739;27;45543;-46
2023/08/12 07:50:25;;;;;;;;;3.50;1.00;;;;;21.77;84.68;101498.22;5086992;27;56734;-45
2023/08/12 07:52:51;;;;;;;;;1.25;1.25;;;;;21.87;84.67;101499.13;5081947;27;62481;-45
2023/08/12 07:55:17;;;;;;;;;1.25;1.00;;;;;21.97;84.21;101497.34;5094940;27;45426;-46
2023/08/12 07:57:44;;;;;;;;;1.00;1.00;;;;;22.10;84.56;101507.09;5083776;27;45519;-45
2023/08/12 08:00:09;;;;;;;;;0.00;0.00;;;;;22.22;83.93;101503.31;5096862;27;45726;-45
2023/08/12 08:02:35;;;;;;;;;3.00;1.00;;;;;22.25;83.35;101505.75;5084652;27;46079;-46
2023/08/12 08:05:00;;;;;;;;;4.75;2.00;;;;;22.27;82.98;101502.91;5082190;27;70474;-45
2023/08/12 08:07:25;;;;;;;;;1.00;1.00;;;;;22.35;83.13;101508.50;5081369;27;63225;-45
2023/08/12 08:09:51;;;;;;;;;2.50;1.00;;;;;22.47;82.87;101509.28;5082496;27;59749;-44
2023/08/12 08:12:17;;;;;;;;;3.25;0.75;;;;;22.57;82.59;101514.75;5071533;27;47086;-46
2023/08/12 08:14:42;;;;;;;;;1.00;1.00;;;;;22.62;81.65;101513.31;5095362;27;45428;-45
2023/08/12 08:17:08;;;;;;;;;3.00;1.25;;;;;22.68;80.70;101508.34;5083850;27;69238;-47
2023/08/12 08:19:33;;;;;;;;;1.00;1.00;;;;;22.72;80.46;101505.22;5069460;27;45474;-48
2023/08/12 08:21:58;;;;;;;;;3.50;1.00;;;;;23.05;80.49;101497.69;5084080;27;54058;-46
2023/08/12 08:24:23;;;;;;;;;1.50;1.00;;;;;23.53;79.70;101498.72;5078252;28;71315;-44
2023/08/12 08:26:49;;;;;;;;;1.00;1.00;;;;;24.25;78.21;101506.41;5080990;27;45761;-44
2023/08/12 08:29:14;;;;;;;;;1.50;1.00;;;;;26.39;78.90;101496.59;5087670;27;45755;-46
2023/08/12 08:31:40;;;;;;;;;0.00;0.00;;;;;28.92;70.79;101497.56;5087100;27;66657;-49
2023/08/12 08:34:06;;;;;;;;;3.00;1.00;;;;;30.30;64.83;101501.09;5059739;27;62500;-45
2023/08/12 08:36:31;;;;;;;;;1.00;0.00;;;;;30.61;60.43;101500.06;5061114;27;45362;-49
2023/08/12 08:38:57;;;;;;;;;1.00;1.00;;;;;30.40;59.49;101500.78;5084576;27;45555;-47
2023/08/12 08:41:24;;;;;;;;;0.50;0.50;;;;;29.91;59.40;101506.88;5083707;27;45520;-47
2023/08/12 08:43:50;;;;;;;;;1.00;1.00;;;;;29.45;57.16;101513.28;5084832;27;45369;-48
2023/08/12 08:46:16;;;;;;;;;2.75;2.50;;;;;29.08;56.81;101518.50;5068951;27;45751;-47
2023/08/12 08:48:42;;;;;;;;;3.75;3.75;;;;;28.67;57.16;101519.63;5060921;27;45673;-48
2023/08/12 08:51:09;;;;;;;;;1.00;1.00;;;;;28.39;58.36;101520.06;5094463;27;46834;-48
2023/08/12 08:53:37;;;;;;;;;1.00;1.00;;;;;28.41;58.90;101519.88;5065593;28;45513;-46
2023/08/12 08:56:05;;;;;;;;;1.25;1.00;;;;;28.48;58.81;101522.75;5077587;27;68198;-47
2023/08/12 08:58:31;;;;;;;;;2.50;1.00;;;;;28.20;58.25;101515.84;5059021;28;45780;-49
2023/08/12 09:00:56;;;;;;;;;1.00;1.00;;;;;27.78;58.31;101510.63;5080509;27;45583;-48
2023/08/12 09:03:22;;;;;;;;;2.75;0.25;;;;;27.50;59.25;101513.75;5079922;27;45373;-47
2023/08/12 09:05:47;;;;;;;;;1.25;1.00;;;;;27.40;59.13;101520.25;5098285;27;49807;-48
2023/08/12 09:08:13;;;;;;;;;2.00;2.00;;;;;27.42;60.32;101521.91;5072255;27;45357;-50
2023/08/12 09:10:42;;;;;;;;;0.00;0.00;;;;;27.30;59.42;101524.09;5077672;27;47582;-47
2023/08/12 09:13:08;;;;;;;;;2.25;1.50;;;;;27.10;59.86;101527.16;5073596;28;45703;-48
2023/08/12 09:15:34;;;;;;;;;6.00;2.00;;;;;27.08;59.23;101523.75;5091296;27;45479;-49
2023/08/12 09:17:59;;;;;;;;;2.00;1.00;;;;;27.19;59.88;101526.16;5090957;27;45565;-51
2023/08/12 09:20:25;;;;;;;;;2.00;1.00;;;;;27.83;59.85;101510.97;5077499;28;62335;-48
2023/08/12 09:22:58;;;;;;;;;1.00;1.00;;;;;29.15;58.84;101527.72;5079592;27;67053;-46
2023/08/12 09:25:23;;;;;;;;;1.00;1.00;;;;;30.02;56.40;101517.38;5086819;27;45381;-50
2023/08/12 09:27:49;;;;;;;;;1.00;1.00;;;;;30.46;54.30;101521.16;5089868;27;70127;-48
2023/08/12 09:30:14;;;;;;;;;1.00;1.00;;;;;30.69;53.72;101515.56;5077695;27;48268;-52
2023/08/12 09:32:40;;;;;;;;;1.00;1.00;;;;;30.98;52.46;101524.75;5086959;27;45678;-48
2023/08/12 09:35:06;;;;;;;;;3.75;1.00;;;;;30.91;52.24;101532.06;5088354;27;45396;-49
2023/08/12 09:37:31;;;;;;;;;1.00;1.00;;;;;30.63;51.24;101533.63;5068842;27;45575;-50
2023/08/12 09:40:00;;;;;;;;;0.00;0.00;;;;;30.27;51.01;101528.94;5094723;27;45524;-49
2023/08/12 09:42:27;;;;;;;;;1.50;1.50;;;;;29.72;50.95;101531.00;5077563;27;45516;-48
2023/08/12 09:44:53;;;;;;;;;1.50;1.00;;;;;29.51;51.89;101529.00;5081596;27;45509;-49
2023/08/12 09:47:19;;;;;;;;;1.00;1.00;;;;;29.42;52.49;101533.69;5083344;27;45596;-48
2023/08/12 09:49:44;;;;;;;;;0.00;0.00;;;;;29.19;52.59;101544.59;5087503;27;46178;-50
2023/08/12 09:52:10;;;;;;;;;2.25;1.25;;;;;29.09;52.88;101552.22;5085592;27;45450;-48
2023/08/12 09:54:35;;;;;;;;;0.50;0.50;;;;;28.96;52.31;101545.44;5092826;27;45451;-51
2023/08/12 09:57:02;;;;;;;;;0.50;0.50;;;;;28.55;52.44;101554.69;5079365;27;65403;-47
2023/08/12 09:59:32;;;;;;;;;0.00;0.00;;;;;28.00;53.88;101544.59;5063971;27;46349;-47
2023/08/12 10:01:58;;;;;;;;;1.25;1.25;;;;;27.51;54.90;101535.41;5097460;27;45402;-49
2023/08/12 10:04:29;;;;;;;;;0.00;0.00;;;;;27.19;55.68;101547.97;5096215;27;45480;-52
2023/08/12 10:06:55;;;;;;;;;1.00;0.25;;;;;27.51;55.83;101545.50;5064585;28;45498;-49
2023/08/12 10:09:20;;;;;;;;;2.00;1.00;;;;;28.66;55.06;101547.16;5078706;27;46713;-48
2023/08/12 10:11:46;;;;;;;;;3.00;2.00;;;;;29.52;53.28;101539.75;5086317;27;45747;-47
2023/08/12 10:14:13;;;;;;;;;2.00;2.00;;;;;29.53;52.75;101536.00;5089242;27;45786;-43
2023/08/12 10:16:39;;;;;;;;;1.25;1.25;;;;;30.21;51.77;101532.44;5083276;27;45395;-48
2023/08/12 10:19:05;;;;;;;;;1.00;1.00;;;;;30.71;49.67;101529.09;5082641;27;47425;-47
2023/08/12 10:21:31;;;;;;;;;3.50;3.00;;;;;31.97;48.26;101534.13;5098562;27;45467;-48
2023/08/12 10:24:00;;;;;;;;;1.50;1.25;;;;;32.75;46.35;101535.81;5091097;27;45595;-47
2023/08/12 10:26:26;;;;;;;;;1.25;0.00;;;;;32.24;46.35;101535.16;5083977;27;45509;-45
2023/08/12 10:28:51;;;;;;;;;1.00;1.00;;;;;33.51;46.16;101540.22;5090748;27;45532;-45
2023/08/12 10:31:18;;;;;;;;;0.50;0.50;;;;;35.74;44.24;101531.63;5082833;27;45481;-46
2023/08/12 10:33:44;;;;;;;;;3.00;1.00;;;;;37.71;39.83;101530.50;5064907;28;45361;-49
2023/08/12 10:36:10;;;;;;;;;1.75;0.75;;;;;38.74;37.74;101533.91;5090058;27;45586;-47
2023/08/12 10:38:35;;;;;;;;;0.00;0.00;;;;;38.76;36.65;101534.47;5093863;27;48369;-49
2023/08/12 10:41:20;;;;;;;;;2.00;0.00;;;;;39.43;35.32;101527.34;5085316;27;45371;-47
2023/08/12 10:43:51;;;;;;;;;2.00;0.50;;;;;40.23;32.81;101532.72;5064424;27;45342;-48
2023/08/12 10:46:35;;;;;;;;;0.00;0.00;;;;;39.99;33.11;101527.38;5083726;27;45851;-46
2023/08/12 10:49:07;;;;;;;;;1.00;0.00;;;;;38.92;34.11;101528.13;5082226;28;46153;-50
2023/08/12 10:51:38;;;;;;;;;0.00;0.00;;;;;37.99;33.95;101531.75;5092795;27;45421;-46
2023/08/12 10:54:13;;;;;;;;;0.75;0.00;;;;;36.79;36.15;101528.94;5083499;27;45429;-48
2023/08/12 10:57:11;;;;;;;;;0.00;0.00;;;;;35.93;36.96;101527.00;5082591;27;45546;-51
2023/08/12 10:59:45;;;;;;;;;0.00;0.00;;;;;36.70;36.63;101517.38;5081785;27;45437;-47
2023/08/12 11:02:16;;;;;;;;;0.00;0.00;;;;;37.91;35.63;101515.44;5083402;27;45421;-51
2023/08/12 11:04:43;;;;;;;;;0.00;0.00;;;;;38.86;33.42;101513.25;5089004;27;45339;-46
2023/08/12 11:07:44;;;;;;;;;0.25;0.25;;;;;39.63;32.83;101515.72;5089388;27;45405;-51
2023/08/12 11:10:14;;;;;;;;;0.50;0.50;;;;;40.06;32.26;101510.47;5059611;28;46103;-50
2023/08/12 11:12:41;;;;;;;;;0.00;0.00;;;;;40.40;31.41;101513.97;5075688;27;45405;-49
2023/08/12 11:15:07;;;;;;;;;1.00;0.00;;;;;40.62;28.12;101502.81;5088684;27;45256;-48
2023/08/12 11:17:37;;;;;;;;;1.00;0.00;;;;;40.57;27.86;101513.91;5102852;27;45409;-51
2023/08/12 11:20:06;;;;;;;;;0.25;0.00;;;;;40.42;29.57;101500.63;5102181;27;46144;-49